Time;durP1;ratioP1;P1;durP2;ratioP2;P2;SDS_P1;SDS_P2;PMS_P1;PMS_P2;Temp;Humidity;BMP_temperature;BMP_pressure;BME280_temperature;BME280_humidity;BME280_pressure;Samples;Min_cycle;Max_cycle;Signal;HPM_P1;HPM_P2
2022/07/27 00:00:20;;;;;;;6.80;4.43;;;;;;;;;;5093683;28;20815;-71
2022/07/27 00:02:48;;;;;;;6.20;4.83;;;;;;;;;;5093597;28;20481;-71
2022/07/27 00:05:16;;;;;;;6.23;4.30;;;;;;;;;;5093626;28;20877;-71
2022/07/27 00:07:44;;;;;;;6.30;3.90;;;;;;;;;;5093483;28;20462;-71
2022/07/27 00:10:11;;;;;;;6.60;4.33;;;;;;;;;;5093559;28;20826;-71
2022/07/27 00:12:38;;;;;;;7.37;5.70;;;;;;;;;;5093406;28;20466;-71
2022/07/27 00:15:06;;;;;;;4.53;4.13;;;;;;;;;;5093135;28;20451;-71
2022/07/27 00:17:33;;;;;;;6.50;4.27;;;;;;;;;;5093492;28;20446;-71
2022/07/27 00:20:00;;;;;;;13.73;4.93;;;;;;;;;;5093846;28;20443;-71
2022/07/27 00:22:27;;;;;;;5.17;4.67;;;;;;;;;;5093059;28;20502;-71
2022/07/27 00:24:56;;;;;;;5.80;4.90;;;;;;;;;;5093468;28;20821;-71
2022/07/27 00:27:23;;;;;;;6.17;5.23;;;;;;;;;;5093389;28;20459;-71
2022/07/27 00:29:50;;;;;;;5.27;4.60;;;;;;;;;;5093289;28;20971;-71
2022/07/27 00:32:17;;;;;;;5.00;4.47;;;;;;;;;;5093476;28;20470;-71
2022/07/27 00:34:44;;;;;;;7.97;5.57;;;;;;;;;;5093371;28;20469;-71
2022/07/27 00:37:11;;;;;;;6.30;4.93;;;;;;;;;;5092989;28;20446;-71
2022/07/27 00:39:39;;;;;;;7.10;4.80;;;;;;;;;;5093323;28;20454;-71
2022/07/27 00:42:07;;;;;;;5.03;4.53;;;;;;;;;;5093175;28;20478;-72
2022/07/27 00:44:34;;;;;;;4.30;3.90;;;;;;;;;;5092968;28;20450;-71
2022/07/27 00:47:02;;;;;;;5.17;4.67;;;;;;;;;;5093226;28;20442;-71
2022/07/27 00:49:29;;;;;;;5.50;4.40;;;;;;;;;;5093131;28;20490;-71
2022/07/27 00:51:56;;;;;;;10.93;4.77;;;;;;;;;;5092876;28;20470;-71
2022/07/27 00:54:23;;;;;;;5.30;4.80;;;;;;;;;;5093399;28;20936;-71
2022/07/27 00:56:51;;;;;;;5.70;5.07;;;;;;;;;;5093194;28;20454;-71
2022/07/27 00:59:20;;;;;;;6.87;5.10;;;;;;;;;;5093184;28;20447;-71
2022/07/27 01:01:47;;;;;;;5.20;4.67;;;;;;;;;;5093010;28;20474;-71
2022/07/27 01:04:14;;;;;;;5.23;4.00;;;;;;;;;;5093096;28;20815;-71
2022/07/27 01:06:41;;;;;;;6.33;5.30;;;;;;;;;;5094213;28;20454;-71
2022/07/27 01:11:53;;;;;;;4.67;4.10;;;;;;;;;;5096742;28;20437;-71
2022/07/27 01:14:21;;;;;;;4.37;3.83;;;;;;;;;;5096660;28;20465;-71
2022/07/27 01:16:50;;;;;;;5.00;4.57;;;;;;;;;;5096699;28;20450;-71
2022/07/27 01:19:18;;;;;;;5.37;3.97;;;;;;;;;;5096702;28;20915;-71
2022/07/27 01:21:46;;;;;;;5.27;4.23;;;;;;;;;;5096732;28;20454;-71
2022/07/27 01:24:13;;;;;;;7.73;5.83;;;;;;;;;;5096842;28;20821;-71
2022/07/27 01:26:40;;;;;;;7.57;5.07;;;;;;;;;;5096531;28;20453;-71
2022/07/27 01:29:07;;;;;;;4.77;4.27;;;;;;;;;;5096403;28;20847;-71
2022/07/27 01:31:35;;;;;;;7.43;4.57;;;;;;;;;;5096041;28;20458;-71
2022/07/27 01:34:02;;;;;;;5.03;4.60;;;;;;;;;;5095990;28;20462;-71
2022/07/27 01:36:29;;;;;;;5.13;4.63;;;;;;;;;;5095995;28;20458;-71
2022/07/27 01:38:57;;;;;;;5.87;4.10;;;;;;;;;;5095913;28;20455;-71
2022/07/27 01:41:24;;;;;;;5.83;5.20;;;;;;;;;;5095992;28;20478;-71
2022/07/27 01:43:52;;;;;;;15.53;11.30;;;;;;;;;;5096064;28;20814;-71
2022/07/27 01:46:19;;;;;;;9.87;8.87;;;;;;;;;;5096280;28;20928;-71
2022/07/27 01:48:46;;;;;;;14.60;11.60;;;;;;;;;;5095719;28;20489;-71
2022/07/27 01:51:13;;;;;;;5.53;4.40;;;;;;;;;;5096077;28;20450;-71
2022/07/27 01:53:40;;;;;;;6.77;5.00;;;;;;;;;;5095575;28;20474;-71
2022/07/27 01:56:11;;;;;;;5.53;4.50;;;;;;;;;;5095962;28;20815;-71
2022/07/27 01:58:38;;;;;;;5.63;4.60;;;;;;;;;;5095851;28;20453;-71
2022/07/27 02:01:05;;;;;;;5.60;5.00;;;;;;;;;;5095997;28;20469;-71
2022/07/27 02:03:33;;;;;;;6.13;4.73;;;;;;;;;;5095818;28;20474;-71
2022/07/27 02:06:00;;;;;;;6.63;4.40;;;;;;;;;;5095759;28;20443;-71
2022/07/27 02:08:27;;;;;;;5.70;5.10;;;;;;;;;;5095577;28;20793;-71
2022/07/27 02:13:40;;;;;;;6.97;5.47;;;;;;;;;;5095514;28;20441;-71
2022/07/27 02:16:07;;;;;;;7.80;5.13;;;;;;;;;;5095164;28;20459;-71
2022/07/27 02:18:34;;;;;;;5.87;5.37;;;;;;;;;;5094454;28;20465;-71
2022/07/27 02:21:01;;;;;;;7.37;5.87;;;;;;;;;;5095513;28;20556;-71
2022/07/27 02:23:30;;;;;;;11.13;7.53;;;;;;;;;;5095301;28;20486;-71
2022/07/27 02:25:57;;;;;;;6.77;6.07;;;;;;;;;;5095247;28;20458;-71
2022/07/27 02:28:24;;;;;;;7.40;5.80;;;;;;;;;;5094885;28;20454;-71
2022/07/27 02:30:53;;;;;;;6.60;5.67;;;;;;;;;;5095230;28;20450;-71
2022/07/27 02:33:20;;;;;;;5.63;4.97;;;;;;;;;;5094855;28;20478;-71
2022/07/27 02:35:47;;;;;;;7.70;6.17;;;;;;;;;;5095217;28;20951;-71
2022/07/27 02:38:14;;;;;;;4.80;4.40;;;;;;;;;;5095096;28;20453;-71
2022/07/27 02:40:41;;;;;;;6.63;4.77;;;;;;;;;;5095110;28;20784;-71
2022/07/27 02:43:08;;;;;;;6.27;4.73;;;;;;;;;;5094677;28;20494;-71
2022/07/27 02:45:35;;;;;;;5.23;4.73;;;;;;;;;;5094863;28;20454;-71
2022/07/27 02:48:04;;;;;;;5.60;5.10;;;;;;;;;;5094918;28;20442;-71
2022/07/27 02:50:31;;;;;;;6.77;5.90;;;;;;;;;;5094768;28;20486;-71
2022/07/27 02:52:58;;;;;;;6.80;5.47;;;;;;;;;;5095487;28;20826;-71
2022/07/27 02:55:25;;;;;;;5.30;4.90;;;;;;;;;;5094787;28;20454;-71
2022/07/27 02:57:52;;;;;;;6.60;5.67;;;;;;;;;;5094731;28;20813;-71
2022/07/27 03:00:19;;;;;;;7.43;6.00;;;;;;;;;;5094785;28;20444;-71
2022/07/27 03:02:48;;;;;;;7.67;6.43;;;;;;;;;;5094871;28;20467;-71
2022/07/27 03:05:17;;;;;;;8.27;7.43;;;;;;;;;;5094541;28;20635;-71
2022/07/27 03:07:44;;;;;;;11.30;9.23;;;;;;;;;;5094724;28;20459;-71
2022/07/27 03:10:11;;;;;;;11.83;8.13;;;;;;;;;;5094416;28;20569;-71
2022/07/27 03:12:38;;;;;;;10.63;6.90;;;;;;;;;;5094098;28;20479;-71
2022/07/27 03:15:06;;;;;;;8.60;6.20;;;;;;;;;;5094389;28;20450;-71
2022/07/27 03:17:33;;;;;;;5.80;5.27;;;;;;;;;;5094401;28;20915;-71
2022/07/27 03:20:00;;;;;;;12.30;7.10;;;;;;;;;;5094027;28;20447;-71
2022/07/27 03:22:31;;;;;;;7.87;6.40;;;;;;;;;;5094137;28;21085;-71
2022/07/27 03:24:58;;;;;;;13.10;7.30;;;;;;;;;;5093977;28;20443;-71
2022/07/27 03:27:25;;;;;;;8.27;6.10;;;;;;;;;;5093830;28;20454;-71
2022/07/27 03:29:52;;;;;;;8.37;6.40;;;;;;;;;;5094131;28;20520;-71
2022/07/27 03:32:19;;;;;;;7.23;6.30;;;;;;;;;;5094050;28;20471;-71
2022/07/27 03:34:47;;;;;;;7.30;6.60;;;;;;;;;;5094098;28;20457;-71
2022/07/27 03:37:15;;;;;;;6.60;6.00;;;;;;;;;;5093998;28;20454;-71
2022/07/27 03:39:45;;;;;;;7.70;6.90;;;;;;;;;;5093997;28;20955;-71
2022/07/27 03:42:12;;;;;;;6.93;6.23;;;;;;;;;;5093499;28;20477;-71
2022/07/27 03:44:39;;;;;;;6.63;5.90;;;;;;;;;;5094410;28;20548;-71
2022/07/27 03:47:06;;;;;;;6.80;6.00;;;;;;;;;;5094007;28;20450;-71
2022/07/27 03:49:33;;;;;;;6.30;5.70;;;;;;;;;;5093711;28;20490;-71
2022/07/27 03:52:01;;;;;;;7.17;5.43;;;;;;;;;;5093975;28;20474;-71
2022/07/27 03:54:28;;;;;;;7.00;6.30;;;;;;;;;;5093781;28;20443;-71
2022/07/27 03:56:56;;;;;;;12.50;9.60;;;;;;;;;;5093451;28;20450;-71
2022/07/27 03:59:23;;;;;;;7.67;6.83;;;;;;;;;;5093676;28;20454;-71
2022/07/27 04:01:50;;;;;;;6.30;5.23;;;;;;;;;;5093552;28;20478;-71
2022/07/27 04:04:17;;;;;;;6.90;4.93;;;;;;;;;;5093591;28;20967;-71
2022/07/27 04:06:45;;;;;;;7.23;5.60;;;;;;;;;;5093588;28;20536;-71
2022/07/27 04:09:12;;;;;;;8.17;5.53;;;;;;;;;;5093454;28;20486;-71
2022/07/27 04:11:40;;;;;;;7.80;4.90;;;;;;;;;;5093502;28;20894;-71
2022/07/27 04:14:08;;;;;;;4.83;4.40;;;;;;;;;;5093575;28;20446;-71
2022/07/27 04:16:35;;;;;;;6.80;3.93;;;;;;;;;;5093205;28;20458;-71
2022/07/27 04:19:02;;;;;;;4.10;3.70;;;;;;;;;;5093198;28;20457;-71
2022/07/27 04:21:29;;;;;;;15.20;7.43;;;;;;;;;;5093062;28;20455;-71
2022/07/27 04:23:56;;;;;;;8.10;5.70;;;;;;;;;;5093444;28;20782;-71
2022/07/27 04:26:23;;;;;;;5.13;3.87;;;;;;;;;;5093406;28;20457;-71
2022/07/27 04:28:51;;;;;;;4.73;4.00;;;;;;;;;;5093093;28;20450;-71
2022/07/27 04:31:19;;;;;;;5.10;3.93;;;;;;;;;;5093262;28;20496;-72
2022/07/27 04:33:46;;;;;;;6.60;4.40;;;;;;;;;;5093273;28;20994;-71
2022/07/27 04:36:13;;;;;;;5.17;4.47;;;;;;;;;;5093317;28;20458;-71
2022/07/27 04:38:40;;;;;;;7.53;4.27;;;;;;;;;;5092943;28;20454;-71
2022/07/27 04:41:08;;;;;;;5.73;4.03;;;;;;;;;;5093160;28;20446;-71
2022/07/27 04:43:35;;;;;;;5.40;3.87;;;;;;;;;;5097212;28;20486;-71
2022/07/27 04:46:03;;;;;;;7.07;4.90;;;;;;;;;;5097010;28;20453;-71
2022/07/27 04:48:32;;;;;;;5.70;4.13;;;;;;;;;;5097014;28;20507;-71
2022/07/27 04:50:59;;;;;;;7.00;3.77;;;;;;;;;;5096821;28;20492;-71
2022/07/27 04:53:26;;;;;;;8.30;3.10;;;;;;;;;;5097156;28;20462;-71
2022/07/27 04:55:53;;;;;;;5.80;3.63;;;;;;;;;;5097139;28;20450;-71
2022/07/27 04:58:21;;;;;;;3.50;3.20;;;;;;;;;;5096736;28;20541;-71
2022/07/27 05:00:48;;;;;;;4.13;3.37;;;;;;;;;;5096708;28;20545;-73
2022/07/27 05:03:15;;;;;;;4.93;3.00;;;;;;;;;;5096871;28;20470;-72
2022/07/27 05:05:43;;;;;;;3.13;2.50;;;;;;;;;;5096932;28;20451;-72
2022/07/27 05:08:10;;;;;;;3.50;3.20;;;;;;;;;;5096527;28;20450;-72
2022/07/27 05:10:38;;;;;;;3.50;3.20;;;;;;;;;;5096643;28;20486;-72
2022/07/27 05:13:05;;;;;;;5.83;3.80;;;;;;;;;;5096713;28;20830;-72
2022/07/27 05:15:32;;;;;;;6.73;3.43;;;;;;;;;;5096750;28;20542;-72
2022/07/27 05:17:59;;;;;;;7.30;3.97;;;;;;;;;;5096355;28;20454;-72
2022/07/27 05:20:26;;;;;;;3.97;3.40;;;;;;;;;;5096530;28;20442;-72
2022/07/27 05:22:55;;;;;;;5.27;3.83;;;;;;;;;;5096484;28;20471;-72
2022/07/27 05:25:24;;;;;;;4.00;3.23;;;;;;;;;;5096378;28;20458;-72
2022/07/27 05:27:51;;;;;;;5.17;4.67;;;;;;;;;;5096147;28;20462;-72
2022/07/27 05:30:19;;;;;;;4.10;3.73;;;;;;;;;;5096342;28;20471;-71
2022/07/27 05:32:46;;;;;;;4.87;4.13;;;;;;;;;;5096347;28;20474;-72
2022/07/27 05:35:13;;;;;;;7.63;3.80;;;;;;;;;;5096348;28;20464;-71
2022/07/27 05:37:40;;;;;;;5.23;3.53;;;;;;;;;;5096300;28;20454;-72
2022/07/27 05:40:10;;;;;;;4.97;3.80;;;;;;;;;;5096246;28;20805;-71
2022/07/27 05:42:37;;;;;;;8.57;5.03;;;;;;;;;;5095796;28;20539;-71
2022/07/27 05:45:04;;;;;;;4.20;3.90;;;;;;;;;;5096127;28;20903;-71
2022/07/27 05:47:31;;;;;;;6.70;5.20;;;;;;;;;;5096369;28;20940;-71
2022/07/27 05:49:59;;;;;;;4.47;3.50;;;;;;;;;;5096082;28;20470;-71
2022/07/27 05:52:26;;;;;;;3.90;3.17;;;;;;;;;;5095473;28;20554;-72
2022/07/27 05:54:53;;;;;;;4.20;3.80;;;;;;;;;;5095123;28;20450;-72
2022/07/27 05:57:21;;;;;;;7.60;4.20;;;;;;;;;;5095934;28;20543;-72
2022/07/27 05:59:53;;;;;;;5.00;3.77;;;;;;;;;;5095908;28;20791;-72
2022/07/27 06:02:20;;;;;;;5.30;3.63;;;;;;;;;;5095408;28;20474;-72
2022/07/27 06:04:47;;;;;;;4.83;3.60;;;;;;;;;;5095389;28;20447;-72
2022/07/27 06:09:59;;;;;;;4.10;3.73;;;;;;;;;;5095432;28;20516;-72
2022/07/27 06:12:28;;;;;;;4.50;3.60;;;;;;;;;;5095216;28;20471;-72
2022/07/27 06:14:55;;;;;;;6.27;4.10;;;;;;;;;;5095578;28;20443;-72
2022/07/27 06:17:22;;;;;;;4.97;3.47;;;;;;;;;;5095124;28;20451;-72
2022/07/27 06:19:49;;;;;;;4.60;3.10;;;;;;;;;;5095449;28;20466;-72
2022/07/27 06:22:18;;;;;;;6.57;3.77;;;;;;;;;;5095317;28;20462;-72
2022/07/27 06:24:45;;;;;;;4.80;3.20;;;;;;;;;;5095092;28;20451;-72
2022/07/27 06:27:12;;;;;;;11.40;9.20;;;;;;;;;;5095341;28;20446;-72
2022/07/27 06:29:41;;;;;;;7.23;5.37;;;;;;;;;;5095132;28;20966;-72
2022/07/27 06:32:08;;;;;;;3.80;3.50;;;;;;;;;;5095168;28;20839;-72
2022/07/27 06:34:35;;;;;;;3.47;3.17;;;;;;;;;;5094943;28;20454;-72
2022/07/27 06:37:05;;;;;;;5.60;3.43;;;;;;;;;;5095148;28;20810;-72
2022/07/27 06:39:32;;;;;;;5.80;3.93;;;;;;;;;;5094885;28;20462;-72
2022/07/27 06:41:59;;;;;;;5.90;4.93;;;;;;;;;;5095015;28;20830;-72
2022/07/27 06:44:26;;;;;;;5.53;3.57;;;;;;;;;;5095257;28;20462;-72
2022/07/27 06:46:55;;;;;;;5.30;3.90;;;;;;;;;;5095720;28;20443;-72
2022/07/27 06:49:22;;;;;;;5.07;4.50;;;;;;;;;;5094944;28;20455;-72
2022/07/27 06:51:49;;;;;;;7.03;4.43;;;;;;;;;;5094767;28;21018;-72
2022/07/27 06:54:16;;;;;;;6.13;4.07;;;;;;;;;;5094697;28;20454;-72
2022/07/27 06:56:43;;;;;;;4.90;4.37;;;;;;;;;;5094967;28;20450;-72
2022/07/27 06:59:10;;;;;;;5.93;3.80;;;;;;;;;;5094514;28;20450;-72
2022/07/27 07:01:37;;;;;;;5.30;4.23;;;;;;;;;;5094353;28;20454;-72
2022/07/27 07:04:06;;;;;;;9.23;4.87;;;;;;;;;;5094284;28;20447;-72
2022/07/27 07:06:33;;;;;;;4.43;4.03;;;;;;;;;;5094555;28;20473;-72
2022/07/27 07:09:00;;;;;;;4.37;3.97;;;;;;;;;;5094434;28;20458;-72
2022/07/27 07:11:27;;;;;;;4.50;4.10;;;;;;;;;;5093980;28;20486;-72
2022/07/27 07:13:54;;;;;;;5.10;4.60;;;;;;;;;;5094490;28;20920;-72
2022/07/27 07:16:22;;;;;;;6.97;5.40;;;;;;;;;;5094505;28;20462;-72
2022/07/27 07:18:49;;;;;;;7.60;4.90;;;;;;;;;;5094007;28;20462;-72
2022/07/27 07:21:17;;;;;;;5.43;4.87;;;;;;;;;;5094218;28;20808;-72
2022/07/27 07:23:44;;;;;;;13.10;4.60;;;;;;;;;;5094137;28;20467;-72
2022/07/27 07:26:11;;;;;;;8.40;4.20;;;;;;;;;;5093876;28;20521;-72
2022/07/27 07:28:39;;;;;;;6.53;5.03;;;;;;;;;;5093804;28;20455;-72
2022/07/27 07:31:06;;;;;;;7.33;5.60;;;;;;;;;;5093836;28;20488;-72
2022/07/27 07:33:33;;;;;;;6.67;4.73;;;;;;;;;;5093859;28;20471;-72
2022/07/27 07:36:00;;;;;;;9.57;8.10;;;;;;;;;;5094135;28;20474;-72
2022/07/27 07:38:29;;;;;;;7.50;4.80;;;;;;;;;;5093632;28;20450;-72
2022/07/27 07:40:57;;;;;;;10.50;4.60;;;;;;;;;;5093975;28;20447;-72
2022/07/27 07:43:24;;;;;;;5.17;4.70;;;;;;;;;;5093669;28;20478;-72
2022/07/27 07:45:51;;;;;;;4.27;3.37;;;;;;;;;;5093909;28;20450;-72
2022/07/27 07:48:18;;;;;;;4.67;4.20;;;;;;;;;;5093786;28;20792;-72
2022/07/27 07:50:45;;;;;;;5.07;4.40;;;;;;;;;;5093775;28;20573;-72
2022/07/27 07:53:14;;;;;;;6.33;4.23;;;;;;;;;;5093825;28;20812;-72
2022/07/27 07:55:43;;;;;;;5.83;4.70;;;;;;;;;;5093603;28;20451;-72
2022/07/27 07:58:10;;;;;;;8.70;4.47;;;;;;;;;;5093346;28;20454;-72
2022/07/27 08:00:37;;;;;;;6.93;4.07;;;;;;;;;;5093680;28;20446;-72
2022/07/27 08:03:04;;;;;;;13.20;4.10;;;;;;;;;;5093463;28;20470;-72
2022/07/27 08:05:32;;;;;;;7.83;4.33;;;;;;;;;;5093196;28;20462;-72
2022/07/27 08:07:59;;;;;;;4.53;3.67;;;;;;;;;;5093571;28;20564;-72
2022/07/27 08:10:28;;;;;;;4.27;3.73;;;;;;;;;;5093250;28;20470;-72
2022/07/27 08:12:56;;;;;;;6.80;4.00;;;;;;;;;;5093424;28;20975;-72
2022/07/27 08:15:24;;;;;;;3.70;3.20;;;;;;;;;;5093385;28;20929;-72
2022/07/27 08:17:51;;;;;;;4.00;3.60;;;;;;;;;;5093009;28;20453;-72
2022/07/27 08:20:18;;;;;;;5.50;3.20;;;;;;;;;;5093214;28;20447;-72
2022/07/27 08:22:45;;;;;;;4.00;3.40;;;;;;;;;;5093374;28;20470;-72
2022/07/27 08:25:13;;;;;;;6.67;4.40;;;;;;;;;;5093451;28;20451;-72
2022/07/27 08:27:40;;;;;;;4.27;3.23;;;;;;;;;;5093378;28;20450;-72
2022/07/27 08:30:10;;;;;;;3.70;3.40;;;;;;;;;;5093508;28;20445;-72
2022/07/27 08:32:47;;;;;;;4.87;3.87;;;;;;;;;;5093074;28;20490;-72
2022/07/27 08:35:16;;;;;;;4.90;3.37;;;;;;;;;;5093292;28;20446;-72
2022/07/27 08:37:43;;;;;;;4.47;3.40;;;;;;;;;;5093351;28;20931;-72
2022/07/27 08:40:10;;;;;;;3.87;3.37;;;;;;;;;;5092929;28;20452;-72
2022/07/27 08:42:38;;;;;;;7.13;6.47;;;;;;;;;;5092997;28;20478;-72
2022/07/27 08:45:05;;;;;;;5.97;3.57;;;;;;;;;;5093181;28;20442;-72
2022/07/27 08:47:35;;;;;;;7.60;3.40;;;;;;;;;;5093449;28;20808;-72
2022/07/27 08:50:03;;;;;;;6.43;3.83;;;;;;;;;;5093190;28;20445;-72
2022/07/27 08:52:30;;;;;;;3.60;3.30;;;;;;;;;;5092746;28;20492;-72
2022/07/27 08:54:57;;;;;;;5.77;3.33;;;;;;;;;;5092900;28;20461;-72
2022/07/27 08:57:24;;;;;;;3.93;3.10;;;;;;;;;;5092968;28;20452;-72
2022/07/27 08:59:55;;;;;;;3.47;3.17;;;;;;;;;;5093089;28;20931;-72
2022/07/27 09:02:22;;;;;;;5.33;3.20;;;;;;;;;;5092708;28;20470;-72
2022/07/27 09:04:51;;;;;;;3.80;2.90;;;;;;;;;;5093112;28;20446;-72
2022/07/27 09:07:27;;;;;;;5.20;2.93;;;;;;;;;;5092759;28;20904;-72
2022/07/27 09:09:55;;;;;;;3.10;2.80;;;;;;;;;;5093100;28;20438;-72
2022/07/27 09:12:27;;;;;;;3.03;2.73;;;;;;;;;;5092305;28;20497;-72
2022/07/27 09:15:03;;;;;;;4.80;2.50;;;;;;;;;;5092408;28;20451;-72
2022/07/27 09:17:31;;;;;;;4.40;3.00;;;;;;;;;;5092511;28;20470;-72
2022/07/27 09:20:00;;;;;;;5.00;2.80;;;;;;;;;;5092704;28;20473;-72
2022/07/27 09:22:40;;;;;;;6.23;2.40;;;;;;;;;;5092451;28;20466;-72
2022/07/27 09:25:09;;;;;;;5.03;2.70;;;;;;;;;;5092249;28;20457;-72
2022/07/27 09:27:36;;;;;;;2.33;2.13;;;;;;;;;;5093388;28;20458;-72
2022/07/27 09:30:03;;;;;;;2.80;2.50;;;;;;;;;;5096228;28;20450;-72
2022/07/27 09:32:30;;;;;;;3.17;2.40;;;;;;;;;;5095887;28;20991;-72
2022/07/27 09:34:57;;;;;;;8.93;2.60;;;;;;;;;;5095907;28;20451;-72
2022/07/27 09:37:27;;;;;;;3.93;2.30;;;;;;;;;;5095742;28;20454;-72
2022/07/27 09:40:09;;;;;;;2.50;2.10;;;;;;;;;;5095458;28;20974;-72
2022/07/27 09:42:36;;;;;;;4.03;2.30;;;;;;;;;;5095506;28;20983;-72
2022/07/27 09:45:03;;;;;;;3.40;2.00;;;;;;;;;;5095770;28;20454;-72
2022/07/27 09:47:31;;;;;;;2.30;2.10;;;;;;;;;;5095836;28;20841;-72
2022/07/27 09:49:58;;;;;;;3.87;2.80;;;;;;;;;;5095589;28;20442;-72
2022/07/27 09:52:28;;;;;;;4.00;2.30;;;;;;;;;;5095485;28;20848;-72
2022/07/27 09:54:55;;;;;;;6.50;3.00;;;;;;;;;;5095611;28;20920;-72
2022/07/27 09:57:22;;;;;;;2.40;2.20;;;;;;;;;;5095537;28;20450;-72
2022/07/27 09:59:49;;;;;;;3.00;2.43;;;;;;;;;;5095546;28;20458;-72
2022/07/27 10:02:17;;;;;;;5.10;2.60;;;;;;;;;;5095216;28;20470;-72
2022/07/27 10:04:44;;;;;;;3.80;2.70;;;;;;;;;;5095289;28;20454;-72
2022/07/27 10:07:13;;;;;;;2.93;2.30;;;;;;;;;;5095367;28;20959;-72
2022/07/27 10:09:42;;;;;;;9.67;2.43;;;;;;;;;;5095239;28;20453;-72
2022/07/27 10:12:09;;;;;;;4.60;2.30;;;;;;;;;;5095245;28;20931;-72
2022/07/27 10:14:36;;;;;;;4.43;2.47;;;;;;;;;;5095237;28;20446;-72
2022/07/27 10:17:03;;;;;;;2.50;2.10;;;;;;;;;;5095285;28;20439;-72
2022/07/27 10:19:34;;;;;;;2.57;2.37;;;;;;;;;;5095199;28;20812;-72
2022/07/27 10:22:01;;;;;;;3.50;2.77;;;;;;;;;;5095227;28;20974;-72
2022/07/27 10:24:31;;;;;;;12.20;2.93;;;;;;;;;;5094815;28;20469;-72
2022/07/27 10:26:59;;;;;;;5.63;2.63;;;;;;;;;;5095021;28;20495;-72
2022/07/27 10:29:26;;;;;;;2.53;2.23;;;;;;;;;;5094943;28;20453;-72
2022/07/27 10:31:57;;;;;;;5.00;2.27;;;;;;;;;;5095059;28;20497;-72
2022/07/27 10:34:33;;;;;;;4.10;2.27;;;;;;;;;;5094504;28;20447;-72
2022/07/27 10:37:08;;;;;;;4.10;2.50;;;;;;;;;;5094832;28;20453;-72
2022/07/27 10:39:37;;;;;;;3.00;2.67;;;;;;;;;;5093688;28;20806;-72
2022/07/27 10:42:24;;;;;;;5.13;2.93;;;;;;;;;;5094693;28;20474;-72
2022/07/27 10:44:55;;;;;;;3.80;2.90;;;;;;;;;;5094551;28;20482;-72
2022/07/27 10:47:29;;;;;;;4.93;2.80;;;;;;;;;;5094648;28;20951;-72
2022/07/27 10:50:11;;;;;;;3.00;2.70;;;;;;;;;;5094709;28;20439;-72
2022/07/27 10:52:42;;;;;;;3.37;2.80;;;;;;;;;;5094139;28;20494;-72
2022/07/27 10:55:09;;;;;;;3.77;2.90;;;;;;;;;;5094228;28;20458;-72
2022/07/27 10:57:39;;;;;;;3.00;2.40;;;;;;;;;;5094434;28;20442;-72
2022/07/27 11:00:08;;;;;;;3.27;2.90;;;;;;;;;;5094582;28;20453;-72
2022/07/27 11:02:38;;;;;;;3.43;3.13;;;;;;;;;;5094411;28;20479;-72
2022/07/27 11:05:06;;;;;;;3.97;3.40;;;;;;;;;;5094000;28;20446;-72
2022/07/27 11:07:33;;;;;;;3.80;3.30;;;;;;;;;;5094131;28;20462;-72
2022/07/27 11:10:02;;;;;;;7.37;4.23;;;;;;;;;;5094284;28;20838;-72
2022/07/27 11:12:30;;;;;;;5.47;3.90;;;;;;;;;;5094076;28;20491;-72
2022/07/27 11:14:58;;;;;;;5.73;3.77;;;;;;;;;;5093949;28;20446;-72
2022/07/27 11:17:27;;;;;;;5.30;4.10;;;;;;;;;;5093843;28;20446;-72
2022/07/27 11:19:54;;;;;;;3.87;3.27;;;;;;;;;;5094107;28;20974;-72
2022/07/27 11:22:31;;;;;;;8.43;5.13;;;;;;;;;;5093898;28;20463;-72
2022/07/27 11:25:00;;;;;;;4.90;3.57;;;;;;;;;;5093818;28;20446;-72
2022/07/27 11:27:30;;;;;;;4.53;4.13;;;;;;;;;;5093726;28;20490;-72
2022/07/27 11:29:58;;;;;;;7.90;4.43;;;;;;;;;;5093900;28;20868;-72
2022/07/27 11:32:26;;;;;;;8.07;4.60;;;;;;;;;;5093482;28;20589;-72
2022/07/27 11:34:53;;;;;;;8.10;4.80;;;;;;;;;;5093468;28;20450;-72
2022/07/27 11:37:22;;;;;;;5.03;4.53;;;;;;;;;;5093547;28;20535;-72
2022/07/27 11:39:59;;;;;;;5.70;4.87;;;;;;;;;;5093120;28;20827;-71
2022/07/27 11:42:36;;;;;;;5.60;5.03;;;;;;;;;;5093365;28;20983;-71
2022/07/27 11:45:05;;;;;;;6.70;5.13;;;;;;;;;;5093293;28;20453;-71
2022/07/27 11:47:32;;;;;;;5.53;4.43;;;;;;;;;;5093591;28;20958;-71
2022/07/27 11:50:04;;;;;;;7.00;4.77;;;;;;;;;;5093567;28;20940;-71
2022/07/27 11:52:32;;;;;;;5.70;4.53;;;;;;;;;;5092632;28;20498;-71
2022/07/27 11:54:59;;;;;;;5.10;4.60;;;;;;;;;;5093150;28;20948;-72
2022/07/27 11:57:31;;;;;;;5.87;4.17;;;;;;;;;;5093330;28;20447;-71
2022/07/27 11:59:58;;;;;;;4.90;3.70;;;;;;;;;;5093409;28;20504;-71
2022/07/27 12:02:26;;;;;;;8.70;4.70;;;;;;;;;;5093294;28;20463;-72
2022/07/27 12:04:54;;;;;;;4.93;4.53;;;;;;;;;;5093257;28;20493;-72
2022/07/27 12:07:22;;;;;;;3.70;3.40;;;;;;;;;;5093144;28;20451;-72
2022/07/27 12:09:50;;;;;;;4.37;3.07;;;;;;;;;;5093084;28;20466;-72
2022/07/27 12:12:19;;;;;;;5.10;3.87;;;;;;;;;;5092892;28;20486;-72
2022/07/27 12:14:47;;;;;;;4.07;3.50;;;;;;;;;;5093056;28;20827;-72
2022/07/27 12:17:17;;;;;;;7.83;3.57;;;;;;;;;;5093196;28;20804;-72
2022/07/27 12:19:50;;;;;;;3.60;3.20;;;;;;;;;;5093101;28;20454;-72
2022/07/27 12:22:23;;;;;;;3.80;3.43;;;;;;;;;;5093028;28;20462;-72
2022/07/27 12:24:50;;;;;;;3.73;3.30;;;;;;;;;;5092956;28;20846;-72
2022/07/27 12:27:17;;;;;;;4.90;3.03;;;;;;;;;;5093120;28;20544;-72
2022/07/27 12:30:05;;;;;;;4.00;2.50;;;;;;;;;;5093058;28;20963;-72
2022/07/27 12:32:33;;;;;;;3.00;2.57;;;;;;;;;;5092765;28;20619;-72
2022/07/27 12:35:02;;;;;;;6.07;3.00;;;;;;;;;;5092843;28;20838;-72
2022/07/27 12:37:30;;;;;;;3.30;2.87;;;;;;;;;;5092914;28;20940;-72
2022/07/27 12:39:59;;;;;;;3.50;3.10;;;;;;;;;;5092564;28;20462;-72
2022/07/27 12:42:35;;;;;;;3.30;2.30;;;;;;;;;;5092667;28;20979;-72
2022/07/27 12:45:16;;;;;;;7.33;2.40;;;;;;;;;;5092600;28;20450;-72
2022/07/27 12:47:43;;;;;;;4.77;4.33;;;;;;;;;;5092977;28;20482;-72
2022/07/27 12:50:13;;;;;;;3.67;2.93;;;;;;;;;;5092847;28;20835;-72
2022/07/27 12:52:44;;;;;;;10.03;2.10;;;;;;;;;;5092713;28;20490;-72
2022/07/27 12:55:11;;;;;;;2.67;2.47;;;;;;;;;;5092555;28;20473;-72
2022/07/27 12:57:38;;;;;;;2.73;2.53;;;;;;;;;;5092593;28;20446;-72
2022/07/27 13:00:07;;;;;;;2.77;2.20;;;;;;;;;;5092680;28;20451;-72
2022/07/27 13:02:34;;;;;;;9.40;3.40;;;;;;;;;;5093623;28;20510;-72
2022/07/27 13:05:01;;;;;;;3.40;2.13;;;;;;;;;;5096406;28;20520;-72
2022/07/27 13:07:30;;;;;;;2.43;1.93;;;;;;;;;;5096674;28;20947;-72
2022/07/27 13:09:57;;;;;;;3.30;2.20;;;;;;;;;;5096397;28;20450;-72
2022/07/27 13:12:24;;;;;;;2.00;1.80;;;;;;;;;;5096289;28;20482;-72
2022/07/27 13:14:52;;;;;;;2.40;1.50;;;;;;;;;;5096316;28;20455;-72
2022/07/27 13:17:19;;;;;;;5.33;2.50;;;;;;;;;;5096275;28;20533;-72
2022/07/27 13:19:47;;;;;;;2.33;1.80;;;;;;;;;;5096340;28;20535;-72
2022/07/27 13:22:14;;;;;;;5.60;2.40;;;;;;;;;;5096137;28;20493;-72
2022/07/27 13:24:42;;;;;;;2.27;1.90;;;;;;;;;;5096090;28;20815;-72
2022/07/27 13:27:09;;;;;;;3.03;1.47;;;;;;;;;;5096096;28;20450;-72
2022/07/27 13:29:37;;;;;;;3.73;1.80;;;;;;;;;;5096216;28;20454;-72
2022/07/27 13:32:04;;;;;;;2.10;1.90;;;;;;;;;;5095869;28;20479;-72
2022/07/27 13:34:31;;;;;;;4.10;2.23;;;;;;;;;;5095802;28;20446;-72
2022/07/27 13:36:58;;;;;;;3.23;1.80;;;;;;;;;;5096089;28;20835;-72
2022/07/27 13:39:25;;;;;;;3.33;2.00;;;;;;;;;;5095621;28;20446;-72
2022/07/27 13:41:54;;;;;;;2.63;1.73;;;;;;;;;;5095885;28;20470;-72
2022/07/27 13:44:21;;;;;;;3.77;2.07;;;;;;;;;;5095773;28;20497;-72
2022/07/27 13:46:49;;;;;;;3.30;1.60;;;;;;;;;;5095849;28;20947;-72
2022/07/27 13:49:16;;;;;;;1.70;1.50;;;;;;;;;;5095767;28;20442;-72
2022/07/27 13:51:44;;;;;;;2.60;2.13;;;;;;;;;;5095763;28;20500;-72
2022/07/27 13:54:11;;;;;;;3.70;2.00;;;;;;;;;;5095328;28;20487;-72
2022/07/27 13:56:39;;;;;;;2.30;1.80;;;;;;;;;;5095892;28;20464;-72
2022/07/27 13:59:07;;;;;;;5.97;1.90;;;;;;;;;;5095684;28;20454;-72
2022/07/27 14:01:36;;;;;;;4.00;2.03;;;;;;;;;;5095566;28;20443;-72
2022/07/27 14:04:05;;;;;;;2.67;2.10;;;;;;;;;;5095424;28;20451;-72
2022/07/27 14:06:32;;;;;;;3.73;2.17;;;;;;;;;;5095739;28;21008;-72
2022/07/27 14:08:59;;;;;;;3.07;1.90;;;;;;;;;;5095494;28;20455;-72
2022/07/27 14:11:26;;;;;;;4.53;1.83;;;;;;;;;;5095261;28;20469;-72
2022/07/27 14:13:54;;;;;;;2.30;2.00;;;;;;;;;;5094260;28;20493;-72
2022/07/27 14:16:22;;;;;;;2.20;2.00;;;;;;;;;;5095085;28;20829;-72
2022/07/27 14:18:49;;;;;;;3.10;1.60;;;;;;;;;;5095276;28;20457;-72
2022/07/27 14:21:17;;;;;;;5.63;4.23;;;;;;;;;;5095031;28;20477;-72
2022/07/27 14:23:44;;;;;;;5.17;2.30;;;;;;;;;;5094930;28;20474;-73
2022/07/27 14:26:11;;;;;;;3.07;1.97;;;;;;;;;;5095122;28;20447;-72
2022/07/27 14:28:39;;;;;;;7.50;2.30;;;;;;;;;;5094871;28;20458;-72
2022/07/27 14:31:09;;;;;;;2.87;2.00;;;;;;;;;;5094846;28;20446;-72
2022/07/27 14:33:38;;;;;;;5.23;2.27;;;;;;;;;;5094561;28;21009;-72
2022/07/27 14:36:06;;;;;;;3.50;2.07;;;;;;;;;;5094892;28;20451;-72
2022/07/27 14:38:33;;;;;;;2.43;1.70;;;;;;;;;;5094714;28;20451;-72
2022/07/27 14:41:00;;;;;;;3.67;2.30;;;;;;;;;;5094255;28;20473;-72
2022/07/27 14:43:28;;;;;;;3.13;2.83;;;;;;;;;;5094346;28;20573;-73
2022/07/27 14:45:55;;;;;;;3.17;2.43;;;;;;;;;;5094602;28;20462;-72
2022/07/27 14:48:22;;;;;;;4.30;2.37;;;;;;;;;;5094622;28;20509;-72
2022/07/27 14:50:51;;;;;;;2.33;1.87;;;;;;;;;;5094598;28;20446;-72
2022/07/27 14:53:18;;;;;;;2.33;1.93;;;;;;;;;;5094373;28;20491;-72
2022/07/27 14:55:45;;;;;;;4.00;2.40;;;;;;;;;;5094371;28;20815;-72